createdAt,value
2023-03-07T00:02:24.059Z,-2.93
2023-03-07T00:05:56.946Z,-2.78
2023-03-07T00:09:32.444Z,-2.55
2023-03-07T00:13:14.234Z,-2.46
2023-03-07T00:17:03.213Z,-2.36
2023-03-07T00:20:53.628Z,-2.32
2023-03-07T00:24:29.831Z,-2.38
2023-03-07T00:28:02.966Z,-2.31
2023-03-07T00:31:52.342Z,-2.26
2023-03-07T00:35:36.929Z,-2.16
2023-03-07T00:39:26.300Z,-2.07
2023-03-07T00:43:15.727Z,-2.00
2023-03-07T00:47:04.940Z,-2.08
2023-03-07T00:50:43.993Z,-2.18
2023-03-07T00:54:35.181Z,-2.17
2023-03-07T00:58:24.238Z,-2.11
2023-03-07T01:02:13.327Z,-1.94
2023-03-07T01:06:01.296Z,-2.12
2023-03-07T01:09:50.488Z,-2.10
2023-03-07T01:13:39.253Z,-2.08
2023-03-07T01:17:30.962Z,-2.31
2023-03-07T01:21:06.086Z,-2.24
2023-03-07T01:24:55.778Z,-2.10
2023-03-07T01:28:44.631Z,-2.05
2023-03-07T01:32:28.545Z,-2.07
2023-03-07T01:36:18.656Z,-1.93
2023-03-07T01:40:07.817Z,-1.93
2023-03-07T01:44:02.277Z,-1.85
2023-03-07T01:47:51.201Z,-1.83
2023-03-07T01:51:40.161Z,-1.80
2023-03-07T01:55:28.998Z,-1.85
2023-03-07T01:59:10.872Z,-1.73
2023-03-07T02:02:59.711Z,-1.66
2023-03-07T02:06:34.940Z,-1.61
2023-03-07T02:10:23.925Z,-1.57
2023-03-07T02:14:06.789Z,-1.56
2023-03-07T02:17:56.591Z,-1.60
2023-03-07T02:22:05.748Z,-1.63
2023-03-07T02:25:57.266Z,-1.57
2023-03-07T02:29:36.250Z,-1.58
2023-03-07T02:33:19.378Z,-1.54
2023-03-07T02:37:14.628Z,-1.58
2023-03-07T02:41:03.364Z,-1.83
2023-03-07T02:44:52.430Z,-1.96
2023-03-07T02:48:42.576Z,-2.10
2023-03-07T02:52:31.760Z,-2.13
2023-03-07T02:55:59.576Z,-2.17
2023-03-07T02:59:39.905Z,-2.22
2023-03-07T03:03:29.224Z,-2.26
2023-03-07T03:07:18.103Z,-2.20
2023-03-07T03:11:02.407Z,-2.06
2023-03-07T03:14:51.472Z,-1.93
2023-03-07T03:18:40.329Z,-1.90
2023-03-07T03:22:29.544Z,-1.75
2023-03-07T03:26:13.199Z,-1.58
2023-03-07T03:29:54.888Z,-1.57
2023-03-07T03:33:36.702Z,-1.56
2023-03-07T03:37:25.735Z,-1.41
2023-03-07T03:41:13.549Z,-1.43
2023-03-07T03:44:56.891Z,-1.58
2023-03-07T03:48:45.851Z,-1.44
2023-03-07T03:52:26.820Z,-1.43
2023-03-07T03:56:16.570Z,-1.38
2023-03-07T04:00:05.780Z,-1.41
2023-03-07T04:03:54.350Z,-1.40
2023-03-07T04:07:38.113Z,-1.39
2023-03-07T04:11:28.962Z,-1.27
2023-03-07T04:15:17.885Z,-1.20
2023-03-07T04:18:59.167Z,-1.00
2023-03-07T04:22:48.249Z,-0.95
2023-03-07T04:26:33.007Z,-0.88
2023-03-07T04:30:21.900Z,-0.87
2023-03-07T04:33:53.931Z,-0.90
2023-03-07T04:37:43.284Z,-0.79
2023-03-07T04:41:31.867Z,-0.75
2023-03-07T04:45:23.708Z,-0.78
2023-03-07T04:49:11.417Z,-0.66
2023-03-07T04:52:47.765Z,-0.61
2023-03-07T04:56:39.477Z,-0.61
2023-03-07T05:00:28.398Z,-0.51
2023-03-07T05:03:59.650Z,-0.59
2023-03-07T05:07:48.498Z,-0.60
2023-03-07T05:11:37.561Z,-0.61
2023-03-07T05:15:26.465Z,-0.53
2023-03-07T05:18:59.612Z,-0.49
2023-03-07T05:22:48.664Z,-0.46
2023-03-07T05:26:28.131Z,-0.40
2023-03-07T05:30:17.883Z,-0.49
2023-03-07T05:34:07.181Z,-0.53
2023-03-07T05:37:57.521Z,-0.48
2023-03-07T05:41:47.333Z,-0.49
2023-03-07T05:45:37.640Z,-0.49
2023-03-07T05:49:26.811Z,-0.40
2023-03-07T05:53:15.929Z,-0.40
2023-03-07T05:56:53.069Z,-0.29
2023-03-07T06:00:45.821Z,-0.25
2023-03-07T06:04:35.621Z,-0.31
2023-03-07T06:08:23.923Z,-0.16
2023-03-07T06:12:02.462Z,0.01
2023-03-07T06:15:51.811Z,-0.03
2023-03-07T06:19:41.953Z,0.12
2023-03-07T06:23:22.223Z,0.21
2023-03-07T06:27:11.381Z,0.32
2023-03-07T06:31:00.764Z,0.33
2023-03-07T06:34:50.506Z,0.49
2023-03-07T06:38:40.146Z,0.60
2023-03-07T06:42:28.223Z,0.65
2023-03-07T06:46:17.162Z,0.68
2023-03-07T06:50:06.385Z,0.77
2023-03-07T06:53:55.888Z,1.03
2023-03-07T07:12:19.466Z,1.65
2023-03-07T07:16:53.940Z,1.87
2023-03-07T07:24:58.293Z,1.77
2023-03-07T07:29:19.993Z,1.55
2023-03-07T07:33:48.534Z,1.45
2023-03-07T07:38:16.746Z,1.58
2023-03-07T07:42:44.492Z,1.61
2023-03-07T07:47:26.790Z,1.82
2023-03-07T07:51:55.556Z,1.94
2023-03-07T07:56:25.652Z,1.95
2023-03-07T08:04:29.995Z,2.04
2023-03-07T08:08:34.621Z,2.19
2023-03-07T08:12:26.437Z,2.19
2023-03-07T08:16:53.961Z,2.26
2023-03-07T08:21:11.919Z,2.31
2023-03-07T08:25:22.662Z,2.40
2023-03-07T08:29:34.382Z,2.34
2023-03-07T08:34:03.501Z,2.51
2023-03-07T08:38:35.585Z,2.57
2023-03-07T08:43:04.484Z,2.54
2023-03-07T08:47:35.035Z,2.63
2023-03-07T08:52:10.201Z,2.59
2023-03-07T08:56:39.249Z,2.54
2023-03-07T09:01:09.164Z,2.41
2023-03-07T09:05:38.513Z,2.30
2023-03-07T09:10:10.415Z,2.15
2023-03-07T09:14:40.139Z,2.13
2023-03-07T09:19:11.088Z,2.19
2023-03-07T09:24:07.520Z,2.16
2023-03-07T09:37:41.747Z,2.18
2023-03-07T09:41:31.240Z,1.92
2023-03-07T09:45:32.405Z,2.02
2023-03-07T09:49:28.501Z,2.20
2023-03-07T09:53:18.812Z,2.22
2023-03-07T09:57:35.040Z,2.21
2023-03-07T10:01:36.651Z,2.11
2023-03-07T10:05:29.207Z,2.09
2023-03-07T10:09:21.881Z,2.16
2023-03-07T10:12:58.276Z,2.11
2023-03-07T10:16:56.233Z,2.13
2023-03-07T10:20:45.173Z,2.24
2023-03-07T10:24:23.997Z,2.32
2023-03-07T10:27:56.728Z,2.43
2023-03-07T10:31:45.109Z,2.43
2023-03-07T10:35:34.163Z,2.48
2023-03-07T10:39:26.755Z,2.70
2023-03-07T10:42:56.670Z,2.74
2023-03-07T10:46:41.559Z,2.83
2023-03-07T10:50:13.235Z,2.81
2023-03-07T10:53:49.684Z,2.95
2023-03-07T10:57:41.776Z,3.15
2023-03-07T11:01:05.251Z,3.14
2023-03-07T11:05:09.438Z,3.29
2023-03-07T11:09:09.360Z,3.34
2023-03-07T11:12:58.478Z,3.43
2023-03-07T11:16:50.898Z,3.38
2023-03-07T11:20:39.785Z,3.50
2023-03-07T11:24:31.745Z,3.67
2023-03-07T11:28:20.962Z,3.59
2023-03-07T11:32:16.106Z,3.81
2023-03-07T11:36:08.528Z,3.81
2023-03-07T11:39:51.753Z,3.96
2023-03-07T11:43:52.168Z,4.16
2023-03-07T11:51:24.103Z,4.24
2023-03-07T11:56:17.921Z,4.23
2023-03-07T12:00:55.376Z,4.27
2023-03-07T12:05:10.381Z,4.39
2023-03-07T12:09:42.250Z,4.37
2023-03-07T12:14:16.896Z,4.50
2023-03-07T12:23:41.553Z,4.56
2023-03-07T12:27:28.902Z,4.59
2023-03-07T12:31:26.575Z,4.69
2023-03-07T12:35:21.700Z,4.74
2023-03-07T12:39:10.792Z,4.69
2023-03-07T12:43:11.639Z,4.74
2023-03-07T12:47:18.769Z,4.77
2023-03-07T12:51:19.860Z,4.75
2023-03-07T12:55:10.579Z,4.75
2023-03-07T12:59:02.021Z,4.75
2023-03-07T13:03:06.825Z,4.65
2023-03-07T13:06:32.401Z,4.64
2023-03-07T13:10:24.879Z,4.73
2023-03-07T13:14:11.263Z,4.72
2023-03-07T13:18:12.385Z,4.76
2023-03-07T13:22:04.884Z,4.77
2023-03-07T13:26:00.452Z,4.71
2023-03-07T13:29:41.362Z,4.71
2023-03-07T13:33:31.868Z,4.76
2023-03-07T13:37:27.814Z,4.72
2023-03-07T13:41:25.016Z,4.75
2023-03-07T13:45:26.088Z,4.75
2023-03-07T13:49:14.478Z,4.68
2023-03-07T13:53:15.923Z,4.65
2023-03-07T13:57:18.223Z,4.90
2023-03-07T14:01:07.562Z,4.83
2023-03-07T14:05:09.217Z,4.72
2023-03-07T14:09:02.852Z,4.75
2023-03-07T14:13:21.233Z,4.84
2023-03-07T14:17:10.535Z,5.00
2023-03-07T14:21:26.879Z,5.09
2023-03-07T14:25:22.733Z,4.78
2023-03-07T14:29:21.038Z,4.80
2023-03-07T14:33:10.918Z,4.83
2023-03-07T14:37:02.257Z,4.80
2023-03-07T14:40:54.578Z,4.82
2023-03-07T14:44:57.117Z,4.81
2023-03-07T14:49:05.519Z,4.75
2023-03-07T14:52:58.872Z,4.79
2023-03-07T14:56:52.850Z,4.77
2023-03-07T15:00:45.297Z,4.78
2023-03-07T15:04:35.000Z,4.77
2023-03-07T15:08:27.291Z,4.77
2023-03-07T15:12:15.367Z,4.81
2023-03-07T15:16:14.408Z,4.87
2023-03-07T15:20:11.700Z,4.88
2023-03-07T15:24:00.916Z,4.89
2023-03-07T15:27:52.865Z,4.91
2023-03-07T15:31:43.670Z,4.96
2023-03-07T15:35:12.785Z,5.06
2023-03-07T15:43:12.596Z,5.08
2023-03-07T15:47:08.617Z,5.16
2023-03-07T15:51:06.743Z,5.19
2023-03-07T15:55:04.084Z,5.23
2023-03-07T15:59:18.499Z,5.24
2023-03-07T16:03:13.505Z,5.23
2023-03-07T16:07:13.013Z,5.35
2023-03-07T16:11:06.460Z,5.34
2023-03-07T16:15:03.491Z,5.36
2023-03-07T16:19:16.376Z,5.34
2023-03-07T16:23:06.437Z,5.39
2023-03-07T16:27:03.081Z,5.40
2023-03-07T16:31:14.834Z,5.35
2023-03-07T16:35:07.485Z,5.31
2023-03-07T16:39:05.380Z,5.22
2023-03-07T16:43:02.048Z,5.20
2023-03-07T16:46:56.342Z,5.18
2023-03-07T16:50:49.605Z,5.11
2023-03-07T16:54:35.766Z,5.12
2023-03-07T16:58:25.580Z,5.14
2023-03-07T17:02:21.711Z,4.93
2023-03-07T17:06:13.024Z,3.64
2023-03-07T17:10:10.641Z,3.11
2023-03-07T17:14:02.368Z,2.89
2023-03-07T17:17:59.113Z,2.80
2023-03-07T17:21:55.962Z,2.67
2023-03-07T17:26:10.448Z,2.68
2023-03-07T17:30:18.290Z,2.64
2023-03-07T17:34:08.940Z,2.61
2023-03-07T17:38:05.018Z,2.54
2023-03-07T17:41:58.831Z,2.50
2023-03-07T17:45:54.357Z,2.46
2023-03-07T17:49:46.953Z,2.46
2023-03-07T17:53:39.872Z,2.32
2023-03-07T17:57:29.843Z,2.31
2023-03-07T18:01:13.372Z,2.33
2023-03-07T18:05:02.725Z,2.33
2023-03-07T18:08:53.224Z,2.29
2023-03-07T18:12:47.010Z,2.21
2023-03-07T18:16:39.920Z,2.16
2023-03-07T18:20:46.417Z,2.12
2023-03-07T18:24:15.917Z,2.13
2023-03-07T18:27:49.522Z,2.10
2023-03-07T18:31:43.741Z,2.13
2023-03-07T18:35:20.615Z,2.11
2023-03-07T18:39:12.345Z,2.03
2023-03-07T18:42:47.779Z,1.99
2023-03-07T18:46:38.381Z,2.00
2023-03-07T18:50:31.893Z,2.03
2023-03-07T18:54:26.104Z,1.98
2023-03-07T18:58:21.942Z,1.95
2023-03-07T19:02:19.467Z,1.97
2023-03-07T19:06:11.895Z,1.97
2023-03-07T19:09:56.680Z,1.92
2023-03-07T19:13:50.333Z,1.96
2023-03-07T19:17:42.365Z,1.91
2023-03-07T19:21:35.468Z,1.96
2023-03-07T19:25:27.806Z,1.92
2023-03-07T19:29:14.724Z,1.95
2023-03-07T19:33:27.887Z,2.00
2023-03-07T19:41:35.841Z,2.00
2023-03-07T19:45:48.423Z,1.92
2023-03-07T19:49:14.171Z,1.93
2023-03-07T20:01:42.717Z,1.83
2023-03-07T20:06:13.494Z,1.83
2023-03-07T20:10:27.563Z,1.87
2023-03-07T20:13:50.927Z,1.88
2023-03-07T20:17:47.671Z,1.83
2023-03-07T20:21:41.511Z,1.79
2023-03-07T20:29:54.323Z,1.77
2023-03-07T20:33:43.559Z,1.74
2023-03-07T20:37:40.147Z,1.77
2023-03-07T20:41:36.389Z,1.75
2023-03-07T20:45:31.250Z,1.79
2023-03-07T20:49:19.818Z,1.84
2023-03-07T20:53:10.630Z,1.79
2023-03-07T20:57:04.898Z,1.76
2023-03-07T21:00:56.044Z,1.86
2023-03-07T21:04:54.471Z,1.83
2023-03-07T21:08:20.055Z,1.82
2023-03-07T21:12:50.190Z,1.81
2023-03-07T21:17:07.508Z,1.76
2023-03-07T21:21:22.417Z,1.75
2023-03-07T21:25:52.218Z,1.69
2023-03-07T21:29:37.918Z,1.67
2023-03-07T21:33:39.683Z,1.71
2023-03-07T21:41:34.208Z,1.69
2023-03-07T21:45:44.882Z,1.66
2023-03-07T21:49:35.219Z,1.71
2023-03-07T21:53:30.614Z,1.65
2023-03-07T21:57:31.275Z,1.69
2023-03-07T22:01:01.186Z,1.57
2023-03-07T22:04:50.161Z,1.58
2023-03-07T22:08:39.929Z,1.60
2023-03-07T22:12:29.221Z,1.55
2023-03-07T22:16:21.465Z,1.56
2023-03-07T22:20:11.053Z,1.55
2023-03-07T22:24:01.484Z,1.59
2023-03-07T22:27:44.381Z,1.58
2023-03-07T22:31:36.280Z,1.59
2023-03-07T22:35:26.667Z,1.48
2023-03-07T22:39:35.852Z,1.48
2023-03-07T22:48:23.548Z,1.47
2023-03-07T22:52:24.200Z,1.40
2023-03-07T22:56:11.819Z,1.44
2023-03-07T22:59:58.489Z,1.40
2023-03-07T23:03:48.546Z,1.40
2023-03-07T23:07:36.082Z,1.43
2023-03-07T23:11:23.924Z,1.42
2023-03-07T23:15:11.739Z,1.43
2023-03-07T23:23:15.353Z,1.33
2023-03-07T23:31:32.685Z,1.37
2023-03-07T23:35:22.495Z,1.35
2023-03-07T23:39:22.817Z,1.31
2023-03-07T23:43:10.839Z,1.32
2023-03-07T23:46:59.432Z,1.29
2023-03-07T23:50:47.053Z,1.31
2023-03-07T23:54:33.296Z,1.33
